Time;durP1;ratioP1;P1;durP2;ratioP2;P2;SDS_P1;SDS_P2;PMS_P1;PMS_P2;Temp;Humidity;BMP_temperature;BMP_pressure;BME280_temperature;BME280_humidity;BME280_pressure;Samples;Min_cycle;Max_cycle;Signal;HPM_P1;HPM_P2
2022/01/04 00:01:29;;;;;;;2.35;1.35;;;;;;;6.21;100.00;98117.22;4981542;28;20038;-59
2022/01/04 00:03:54;;;;;;;1.98;1.20;;;;;;;6.21;100.00;98108.44;4972678;28;20061;-59
2022/01/04 00:06:20;;;;;;;1.73;1.17;;;;;;;6.18;100.00;98101.75;4968911;28;20045;-59
2022/01/04 00:08:47;;;;;;;6.05;1.55;;;;;;;6.19;100.00;98095.38;4977822;28;20030;-59
2022/01/04 00:11:18;;;;;;;3.50;1.35;;;;;;;6.21;100.00;98087.16;4974410;28;20100;-59
2022/01/04 00:13:44;;;;;;;2.03;1.30;;;;;;;6.19;100.00;98074.09;4971052;28;20398;-59
2022/01/04 00:16:10;;;;;;;4.93;1.40;;;;;;;6.20;100.00;98070.38;4976993;28;20049;-59
2022/01/04 00:18:37;;;;;;;1.55;1.23;;;;;;;6.21;100.00;98071.97;4972471;28;20129;-59
2022/01/04 00:21:02;;;;;;;1.95;1.30;;;;;;;6.19;100.00;98074.09;4977123;28;20050;-59
2022/01/04 00:23:28;;;;;;;3.38;1.50;;;;;;;6.16;100.00;98063.94;4968479;28;20859;-59
2022/01/04 00:25:53;;;;;;;3.67;1.50;;;;;;;6.11;100.00;98055.06;4977264;28;20692;-61
2022/01/04 00:28:18;;;;;;;2.88;1.35;;;;;;;6.09;100.00;98054.50;4973909;28;20492;-59
2022/01/04 00:30:44;;;;;;;4.22;1.50;;;;;;;6.11;100.00;98049.75;4970167;28;20053;-59
2022/01/04 00:33:11;;;;;;;2.08;1.40;;;;;;;6.01;100.00;98045.06;4967976;28;20636;-59
2022/01/04 00:35:37;;;;;;;2.95;1.63;;;;;;;5.99;100.00;98042.66;4972369;28;20439;-59
2022/01/04 00:38:03;;;;;;;3.47;1.85;;;;;;;5.98;100.00;98032.25;4980108;28;20034;-59
2022/01/04 00:40:28;;;;;;;3.17;2.00;;;;;;;6.03;100.00;98032.34;4971699;28;20097;-59
2022/01/04 00:42:58;;;;;;;3.83;2.00;;;;;;;6.06;100.00;98015.88;4973060;28;20568;-60
2022/01/04 00:45:24;;;;;;;3.70;2.10;;;;;;;6.09;100.00;98007.44;4976278;28;20713;-59
2022/01/04 00:50:22;;;;;;;5.10;1.80;;;;;;;6.15;100.00;98011.78;4975362;28;20098;-59
2022/01/04 00:52:47;;;;;;;2.70;1.70;;;;;;;6.21;100.00;98018.78;4969778;28;20026;-59
2022/01/04 00:55:13;;;;;;;4.25;1.92;;;;;;;6.30;100.00;98013.06;4975492;28;20902;-59
2022/01/04 00:57:39;;;;;;;2.83;1.80;;;;;;;6.29;100.00;98014.09;4972386;28;20026;-59
2022/01/04 01:00:06;;;;;;;4.18;1.90;;;;;;;6.23;100.00;98006.03;4975656;28;20038;-59
2022/01/04 01:02:31;;;;;;;3.25;1.70;;;;;;;6.19;100.00;97994.28;4973867;28;20484;-59
2022/01/04 01:04:56;;;;;;;4.13;1.70;;;;;;;6.16;100.00;97994.75;4974584;28;20034;-59
2022/01/04 01:07:22;;;;;;;4.30;1.73;;;;;;;6.12;100.00;97985.66;4967531;28;20105;-59
2022/01/04 01:10:26;;;;;;;3.30;1.75;;;;;;;5.91;100.00;97984.50;4966840;28;20034;-59
2022/01/04 01:12:33;;;;;;;5.63;1.85;;;;;;;5.92;100.00;97974.69;4975936;28;20161;-59
2022/01/04 01:14:58;;;;;;;3.28;1.85;;;;;;;5.84;100.00;97960.75;4974626;28;20253;-60
2022/01/04 01:17:24;;;;;;;5.05;2.05;;;;;;;5.92;100.00;97956.06;4978890;28;20121;-59
2022/01/04 01:19:50;;;;;;;3.00;1.65;;;;;;;5.92;100.00;97953.41;4975553;28;20066;-59
2022/01/04 01:22:15;;;;;;;2.95;1.63;;;;;;;5.96;100.00;97949.25;4977702;28;20151;-59
2022/01/04 01:24:40;;;;;;;3.30;1.90;;;;;;;5.98;100.00;97944.47;4969365;28;20031;-59
2022/01/04 01:27:06;;;;;;;4.22;1.75;;;;;;;5.99;100.00;97951.41;4965919;28;20055;-59
2022/01/04 01:29:31;;;;;;;3.95;1.77;;;;;;;5.98;100.00;97941.81;4972136;28;20049;-60
2022/01/04 01:31:57;;;;;;;3.20;1.77;;;;;;;5.98;100.00;97941.81;4978699;28;20638;-60
2022/01/04 01:34:23;;;;;;;5.43;1.77;;;;;;;5.97;100.00;97948.22;4975293;28;20038;-59
2022/01/04 01:36:49;;;;;;;3.05;1.65;;;;;;;5.98;100.00;97934.66;4969353;28;20121;-59
2022/01/04 01:39:15;;;;;;;6.65;2.95;;;;;;;5.96;100.00;97930.63;4969457;28;20473;-59
2022/01/04 01:41:40;;;;;;;1.70;1.40;;;;;;;5.84;100.00;97907.56;4970693;28;20035;-59
2022/01/04 01:44:06;;;;;;;2.10;1.50;;;;;;;5.94;100.00;97901.63;4974085;28;20039;-59
2022/01/04 01:46:31;;;;;;;2.88;1.65;;;;;;;5.98;100.00;97916.03;4969534;28;20046;-59
2022/01/04 01:48:56;;;;;;;2.67;1.80;;;;;;;5.95;100.00;97902.44;4975982;28;20045;-59
2022/01/04 01:51:23;;;;;;;2.60;1.70;;;;;;;5.93;100.00;97899.97;4974695;28;20069;-59
2022/01/04 01:53:48;;;;;;;6.72;2.05;;;;;;;5.90;100.00;97900.47;4978754;28;20033;-59
2022/01/04 01:56:14;;;;;;;4.38;1.70;;;;;;;5.79;100.00;97880.91;4970929;28;20050;-60
2022/01/04 01:58:39;;;;;;;5.03;1.63;;;;;;;5.89;100.00;97887.41;4976842;28;20296;-60
2022/01/04 02:01:05;;;;;;;5.25;2.13;;;;;;;5.94;100.00;97884.84;4969173;28;20046;-60
2022/01/04 02:03:30;;;;;;;2.70;1.70;;;;;;;5.96;100.00;97882.75;4986461;28;20035;-59
2022/01/04 02:05:55;;;;;;;4.05;1.70;;;;;;;5.97;100.00;97884.38;4969179;28;20045;-60
2022/01/04 02:08:21;;;;;;;4.43;2.10;;;;;;;6.02;100.00;97881.78;4973408;28;20049;-59
2022/01/04 02:10:46;;;;;;;2.88;1.75;;;;;;;6.01;100.00;97883.63;4980478;28;20416;-59
2022/01/04 02:13:12;;;;;;;4.05;1.65;;;;;;;5.99;100.00;97866.28;4975465;28;20564;-61
2022/01/04 02:15:37;;;;;;;6.40;1.70;;;;;;;6.00;100.00;97878.56;4972210;28;20073;-61
2022/01/04 02:18:03;;;;;;;10.32;2.45;;;;;;;5.97;100.00;97881.72;4970313;28;20097;-61
2022/01/04 02:20:28;;;;;;;8.23;2.90;;;;;;;5.95;100.00;97865.19;4969986;28;20349;-61
2022/01/04 02:22:55;;;;;;;8.48;2.80;;;;;;;5.94;100.00;97863.56;4969068;28;20030;-60
2022/01/04 02:25:20;;;;;;;5.70;2.22;;;;;;;5.84;100.00;97854.41;4974152;28;20054;-59
2022/01/04 02:27:46;;;;;;;5.40;2.20;;;;;;;5.83;100.00;97844.00;4990305;28;20045;-61
2022/01/04 02:30:14;;;;;;;5.45;2.03;;;;;;;5.94;100.00;97836.97;4977673;28;20162;-61
2022/01/04 02:32:40;;;;;;;4.38;2.05;;;;;;;5.80;100.00;97837.31;4969014;28;20026;-60
2022/01/04 02:35:06;;;;;;;3.50;1.80;;;;;;;5.84;100.00;97830.47;4971004;28;20061;-61
2022/01/04 02:37:33;;;;;;;4.85;2.00;;;;;;;5.88;100.00;97821.97;4971496;28;20054;-59
2022/01/04 02:39:58;;;;;;;3.25;1.90;;;;;;;5.73;100.00;97828.69;4973753;28;20022;-59
2022/01/04 02:42:23;;;;;;;6.07;1.90;;;;;;;5.73;100.00;97815.41;4969620;28;20057;-59
2022/01/04 02:44:49;;;;;;;3.45;1.52;;;;;;;5.81;100.00;97817.63;4977746;28;20050;-59
2022/01/04 02:47:15;;;;;;;2.38;1.70;;;;;;;5.83;100.00;97809.44;4985626;28;20330;-59
2022/01/04 02:49:40;;;;;;;4.68;1.52;;;;;;;5.84;100.00;97803.88;4970757;28;20532;-59
2022/01/04 02:52:06;;;;;;;4.28;1.50;;;;;;;5.82;100.00;97800.66;4966984;28;20038;-61
2022/01/04 02:54:31;;;;;;;2.28;1.60;;;;;;;5.81;100.00;97799.03;4973386;28;20034;-59
2022/01/04 02:56:57;;;;;;;4.28;1.85;;;;;;;5.80;100.00;97800.09;4970333;28;20055;-61
2022/01/04 02:59:22;;;;;;;2.75;1.63;;;;;;;5.85;100.00;97791.38;4976035;28;20082;-59
2022/01/04 03:01:47;;;;;;;4.15;1.95;;;;;;;5.80;100.00;97794.75;4967689;28;20042;-60
2022/01/04 03:04:13;;;;;;;4.05;2.10;;;;;;;5.79;100.00;97793.16;4974378;28;20039;-61
2022/01/04 03:06:38;;;;;;;4.18;2.30;;;;;;;5.75;100.00;97784.06;4968991;28;20181;-61
2022/01/04 03:09:04;;;;;;;5.93;2.22;;;;;;;5.67;100.00;97784.50;4971100;28;20038;-61
2022/01/04 03:11:30;;;;;;;3.75;1.88;;;;;;;5.67;100.00;97784.50;4974860;28;20042;-61
2022/01/04 03:13:55;;;;;;;5.57;1.90;;;;;;;5.76;100.00;97780.34;4971094;28;20045;-61
2022/01/04 03:16:20;;;;;;;6.45;2.15;;;;;;;5.75;100.00;97776.09;4972897;28;20310;-61
2022/01/04 03:21:30;;;;;;;3.33;2.15;;;;;;;5.81;100.00;97774.28;4971921;28;20097;-63
2022/01/04 03:23:57;;;;;;;3.53;1.75;;;;;;;5.81;100.00;97768.97;4975773;28;20525;-61
2022/01/04 03:26:23;;;;;;;3.83;1.88;;;;;;;5.84;100.00;97769.31;4977079;28;20555;-61
2022/01/04 03:28:48;;;;;;;3.05;1.70;;;;;;;5.85;100.00;97764.78;4977235;28;20050;-61
2022/01/04 03:31:14;;;;;;;3.55;1.90;;;;;;;5.84;100.00;97757.84;4970706;28;20038;-61
2022/01/04 03:33:40;;;;;;;3.58;1.90;;;;;;;5.84;100.00;97753.34;4990688;28;20038;-61
2022/01/04 03:36:05;;;;;;;4.13;1.90;;;;;;;5.83;100.00;97749.06;4970482;28;20089;-61
2022/01/04 03:38:31;;;;;;;3.15;1.90;;;;;;;5.82;100.00;97749.34;4971156;28;20034;-60
2022/01/04 03:40:56;;;;;;;4.22;2.60;;;;;;;5.79;100.00;97745.31;4994120;28;20470;-60
2022/01/04 03:43:22;;;;;;;3.65;2.30;;;;;;;5.78;100.00;97734.91;4973010;28;20690;-60
2022/01/04 03:45:48;;;;;;;5.88;2.60;;;;;;;5.75;100.00;97720.25;4977014;28;20050;-60
2022/01/04 03:48:13;;;;;;;4.75;2.50;;;;;;;5.67;100.00;97720.69;4968820;28;20350;-60
2022/01/04 03:50:40;;;;;;;5.28;2.60;;;;;;;5.68;100.00;97709.00;4969171;28;20049;-60
2022/01/04 03:53:05;;;;;;;5.30;2.45;;;;;;;5.74;100.00;97720.50;4974611;28;20069;-60
2022/01/04 03:55:31;;;;;;;5.88;2.47;;;;;;;5.72;100.00;97718.09;4973398;28;20043;-60
2022/01/04 03:57:56;;;;;;;3.47;2.30;;;;;;;5.69;100.00;97707.97;4975808;28;20322;-60
2022/01/04 04:00:21;;;;;;;4.32;2.35;;;;;;;5.66;100.00;97708.44;4970666;28;20070;-60
2022/01/04 04:02:47;;;;;;;3.78;2.25;;;;;;;5.66;100.00;97697.81;4985795;28;20509;-60
2022/01/04 04:05:13;;;;;;;3.90;2.47;;;;;;;5.67;100.00;97704.75;4971317;28;20023;-60
2022/01/04 04:07:38;;;;;;;5.22;2.45;;;;;;;5.61;100.00;97700.41;4974952;28;20046;-60
2022/01/04 04:10:04;;;;;;;5.53;2.50;;;;;;;5.60;100.00;97694.31;4968592;28;20054;-60
2022/01/04 04:12:30;;;;;;;4.00;2.75;;;;;;;5.59;100.00;97687.38;4968035;28;20027;-60
2022/01/04 04:14:58;;;;;;;5.85;2.60;;;;;;;5.51;100.00;97671.06;4970347;28;20029;-60
2022/01/04 04:17:24;;;;;;;4.72;2.97;;;;;;;5.57;100.00;97672.75;4970985;28;20113;-60
2022/01/04 04:19:49;;;;;;;4.18;2.50;;;;;;;5.51;100.00;97660.44;4970553;28;20026;-60
2022/01/04 04:22:15;;;;;;;5.65;3.10;;;;;;;5.53;100.00;97672.41;4973356;28;20051;-59
2022/01/04 04:24:41;;;;;;;5.38;3.00;;;;;;;5.57;100.00;97667.44;4973688;28;20030;-59
2022/01/04 04:27:06;;;;;;;4.95;2.78;;;;;;;5.56;100.00;97666.59;4975668;28;20049;-59
2022/01/04 04:29:33;;;;;;;4.80;2.47;;;;;;;5.57;100.00;97662.13;4975611;28;20022;-59
2022/01/04 04:31:58;;;;;;;4.25;2.30;;;;;;;5.43;100.00;97655.56;4990679;28;20035;-59
2022/01/04 04:34:24;;;;;;;5.80;2.20;;;;;;;5.47;100.00;97648.72;4968126;28;20492;-59
2022/01/04 04:36:49;;;;;;;3.38;2.20;;;;;;;5.38;100.00;97646.47;4974499;28;20046;-59
2022/01/04 04:39:14;;;;;;;6.30;2.20;;;;;;;5.46;100.00;97644.44;4968340;28;20019;-60
2022/01/04 04:41:40;;;;;;;3.65;2.13;;;;;;;5.50;100.00;97642.88;4981164;28;20113;-59
2022/01/04 04:44:05;;;;;;;4.32;2.00;;;;;;;5.51;100.00;97636.50;4972809;28;20778;-59
2022/01/04 04:46:31;;;;;;;4.28;2.20;;;;;;;5.50;100.00;97637.56;4972883;28;20049;-60
2022/01/04 04:48:56;;;;;;;4.80;2.30;;;;;;;5.45;100.00;97632.19;4973479;28;20065;-60
2022/01/04 04:51:22;;;;;;;4.65;2.25;;;;;;;5.38;100.00;97627.06;4978701;28;20074;-59
2022/01/04 04:53:47;;;;;;;2.97;2.00;;;;;;;5.39;100.00;97618.84;4978018;28;20441;-60
2022/01/04 04:56:13;;;;;;;2.67;1.85;;;;;;;5.30;100.00;97614.22;4971243;28;20097;-60
2022/01/04 04:58:38;;;;;;;3.22;2.20;;;;;;;5.25;100.00;97609.66;4965475;28;20030;-59
2022/01/04 05:01:03;;;;;;;4.72;2.40;;;;;;;5.13;100.00;97598.34;4974842;28;20043;-59
2022/01/04 05:03:29;;;;;;;4.00;2.20;;;;;;;5.14;100.00;97595.44;4971870;28;20030;-59
2022/01/04 05:05:54;;;;;;;3.90;2.00;;;;;;;5.19;100.00;97603.47;4977986;28;20089;-59
2022/01/04 05:08:20;;;;;;;4.35;2.20;;;;;;;5.23;100.00;97609.09;4981212;28;20116;-60
2022/01/04 05:10:46;;;;;;;5.60;2.38;;;;;;;5.31;100.00;97608.66;4971510;28;20513;-59
2022/01/04 05:13:11;;;;;;;3.70;2.08;;;;;;;5.31;100.00;97611.31;4972982;28;20035;-59
2022/01/04 05:15:37;;;;;;;2.70;1.83;;;;;;;5.30;100.00;97615.03;4972839;28;20559;-59
2022/01/04 05:18:02;;;;;;;5.05;2.17;;;;;;;5.24;100.00;97596.59;4973761;28;20069;-59
2022/01/04 05:20:27;;;;;;;4.25;2.25;;;;;;;5.14;100.00;97584.81;4973523;28;20097;-59
2022/01/04 05:22:53;;;;;;;4.43;2.40;;;;;;;5.34;100.00;97584.25;4977481;28;20062;-59
2022/01/04 05:25:18;;;;;;;4.68;2.45;;;;;;;5.19;100.00;97579.56;4979405;28;20067;-59
2022/01/04 05:27:44;;;;;;;4.63;2.50;;;;;;;5.28;100.00;97577.28;4977002;28;20040;-60
2022/01/04 05:30:10;;;;;;;3.63;2.33;;;;;;;5.27;100.00;97562.41;4975352;28;20085;-59
2022/01/04 05:32:35;;;;;;;5.53;2.50;;;;;;;5.30;100.00;97561.88;4973117;28;20036;-59
2022/01/04 05:35:00;;;;;;;6.65;2.92;;;;;;;5.30;100.00;97566.41;4976325;28;20034;-60
2022/01/04 05:37:26;;;;;;;5.05;2.70;;;;;;;5.17;100.00;97557.75;4982319;28;20066;-60
2022/01/04 05:39:51;;;;;;;4.20;2.75;;;;;;;5.14;100.00;97562.75;4969896;28;20564;-59
2022/01/04 05:42:17;;;;;;;4.35;2.47;;;;;;;5.21;100.00;97559.91;4973023;28;20043;-59
2022/01/04 05:44:42;;;;;;;4.43;2.58;;;;;;;5.16;100.00;97558.00;4971643;28;20492;-59
2022/01/04 05:47:07;;;;;;;6.40;2.80;;;;;;;5.23;100.00;97563.94;4970581;28;20097;-59
2022/01/04 05:49:33;;;;;;;4.65;2.60;;;;;;;5.16;100.00;97558.00;4973623;28;20040;-59
2022/01/04 05:51:58;;;;;;;4.85;2.95;;;;;;;5.19;100.00;97550.34;4974026;28;20042;-60
2022/01/04 05:54:24;;;;;;;5.03;2.50;;;;;;;5.24;100.00;97551.44;4968196;28;20045;-59
2022/01/04 05:56:49;;;;;;;7.18;2.30;;;;;;;5.25;100.00;97543.25;4975725;28;20049;-61
2022/01/04 05:59:14;;;;;;;5.22;2.70;;;;;;;5.23;100.00;97540.03;4972118;28;20701;-60
2022/01/04 06:01:40;;;;;;;5.57;2.45;;;;;;;5.26;100.00;97539.53;4968690;28;20050;-60
2022/01/04 06:04:06;;;;;;;4.47;2.40;;;;;;;5.27;100.00;97545.66;4973728;28;20034;-60
2022/01/04 06:06:31;;;;;;;5.10;2.97;;;;;;;5.27;100.00;97543.81;4971283;28;20050;-60
2022/01/04 06:08:57;;;;;;;3.85;2.17;;;;;;;5.27;100.00;97535.03;4975032;28;20105;-60
2022/01/04 06:11:54;;;;;;;3.90;2.00;;;;;;;5.29;100.00;97533.72;4983667;28;20101;-61
2022/01/04 06:16:58;;;;;;;4.30;2.33;;;;;;;5.33;100.00;97534.81;4968940;28;20261;-61
2022/01/04 06:19:23;;;;;;;5.18;2.50;;;;;;;5.37;100.00;97530.63;4972680;28;20038;-61
2022/01/04 06:21:49;;;;;;;5.78;2.33;;;;;;;5.34;100.00;97535.63;4974172;28;20038;-61
2022/01/04 06:24:14;;;;;;;5.10;2.45;;;;;;;5.31;100.00;97542.22;4968128;28;20047;-60
2022/01/04 06:26:39;;;;;;;4.18;2.15;;;;;;;5.34;100.00;97536.44;4975107;28;20049;-59
2022/01/04 06:29:05;;;;;;;1.73;1.40;;;;;;;5.29;100.00;97533.72;4973167;28;20041;-59
2022/01/04 06:31:30;;;;;;;3.13;1.83;;;;;;;5.26;100.00;97534.22;4966457;28;20117;-60
2022/01/04 06:33:56;;;;;;;2.38;1.52;;;;;;;5.29;100.00;97532.91;4970169;28;20030;-59
2022/01/04 06:36:21;;;;;;;2.65;1.67;;;;;;;5.34;100.00;97528.47;4970852;28;20038;-60
2022/01/04 06:38:47;;;;;;;3.67;1.77;;;;;;;5.29;100.00;97512.47;4967029;28;20933;-59
2022/01/04 06:41:12;;;;;;;6.95;1.98;;;;;;;5.30;100.00;97519.38;4966297;28;20039;-59
2022/01/04 06:43:37;;;;;;;4.18;1.90;;;;;;;5.26;100.00;97512.97;4974876;28;20432;-61
2022/01/04 06:46:03;;;;;;;3.10;1.75;;;;;;;5.24;100.00;97509.78;4974404;28;20150;-60
2022/01/04 06:48:28;;;;;;;5.22;1.70;;;;;;;5.27;100.00;97509.25;4967613;28;20038;-60
2022/01/04 06:50:54;;;;;;;2.60;1.70;;;;;;;5.19;100.00;97496.41;4975092;28;20038;-59
2022/01/04 06:53:19;;;;;;;2.47;1.63;;;;;;;5.15;100.00;97503.28;4970520;28;20042;-59
2022/01/04 06:55:50;;;;;;;2.30;1.52;;;;;;;5.15;100.00;97495.31;4978069;28;20050;-61
2022/01/04 06:58:15;;;;;;;3.15;1.80;;;;;;;5.14;100.00;97488.38;4966679;28;20754;-61
2022/01/04 07:00:41;;;;;;;2.80;1.80;;;;;;;5.10;100.00;97482.78;4972582;28;20053;-60
2022/01/04 07:03:06;;;;;;;11.40;5.15;;;;;;;4.95;100.00;97480.78;4970572;28;20034;-61
2022/01/04 07:05:34;;;;;;;28.23;16.15;;;;;;;5.16;100.00;97479.13;4965795;28;20094;-60
2022/01/04 07:07:59;;;;;;;37.67;23.75;;;;;;;5.01;100.00;97475.50;4965832;28;20489;-61
2022/01/04 07:10:25;;;;;;;13.75;8.52;;;;;;;5.03;100.00;97481.38;4969272;28;20046;-60
2022/01/04 07:12:50;;;;;;;10.40;5.90;;;;;;;5.00;100.00;97480.03;4971222;28;20018;-61
2022/01/04 07:15:16;;;;;;;6.95;4.35;;;;;;;5.06;100.00;97491.50;4986934;28;20849;-61
2022/01/04 07:17:41;;;;;;;23.05;14.75;;;;;;;5.05;100.00;97489.91;4975135;28;20030;-61
2022/01/04 07:20:08;;;;;;;10.00;6.00;;;;;;;5.04;100.00;97488.28;4970493;28;20049;-60
2022/01/04 07:22:33;;;;;;;5.72;3.58;;;;;;;5.02;100.00;97474.44;4973892;28;20051;-61
2022/01/04 07:24:59;;;;;;;5.40;3.60;;;;;;;4.95;100.00;97477.31;4969610;28;20031;-61
2022/01/04 07:27:24;;;;;;;7.10;4.80;;;;;;;5.13;100.00;97474.31;4973064;28;20051;-61
2022/01/04 07:29:50;;;;;;;6.07;4.57;;;;;;;5.05;100.00;97468.66;4974170;28;20042;-61
2022/01/04 07:32:15;;;;;;;7.03;4.35;;;;;;;5.09;100.00;97464.44;4972189;28;20042;-61
2022/01/04 07:34:40;;;;;;;9.35;5.10;;;;;;;5.05;100.00;97466.81;4965112;28;20404;-60
2022/01/04 07:37:06;;;;;;;11.75;6.45;;;;;;;5.06;100.00;97465.75;4971016;28;20058;-61
2022/01/04 07:39:31;;;;;;;5.28;3.58;;;;;;;4.96;100.00;97461.13;4971383;28;20050;-61
2022/01/04 07:41:57;;;;;;;12.00;6.75;;;;;;;5.03;100.00;97460.13;4971667;28;20149;-61
2022/01/04 07:44:23;;;;;;;12.40;5.72;;;;;;;4.96;100.00;97460.31;4974128;28;20050;-59
2022/01/04 07:46:48;;;;;;;9.55;5.60;;;;;;;5.07;100.00;97455.94;4970777;28;20513;-61
2022/01/04 07:49:15;;;;;;;12.05;6.65;;;;;;;5.12;100.00;97448.03;4969538;28;20030;-61
2022/01/04 07:51:41;;;;;;;12.02;7.82;;;;;;;5.15;100.00;97443.00;4971902;28;20105;-61
2022/01/04 07:54:06;;;;;;;12.50;7.22;;;;;;;5.16;100.00;97454.41;4970824;28;20038;-59
2022/01/04 07:56:32;;;;;;;10.05;5.68;;;;;;;5.13;100.00;97452.28;4971636;28;20359;-59
2022/01/04 07:59:00;;;;;;;9.07;5.35;;;;;;;5.24;100.00;97454.00;4973731;28;20076;-59
2022/01/04 08:01:28;;;;;;;6.40;3.40;;;;;;;5.16;100.00;97455.22;4974575;28;20043;-60
2022/01/04 08:03:53;;;;;;;5.57;2.92;;;;;;;5.22;100.00;97461.41;4973690;28;20034;-59
2022/01/04 08:06:18;;;;;;;4.93;2.28;;;;;;;5.16;100.00;97454.41;4974956;28;20043;-59
2022/01/04 08:08:44;;;;;;;5.25;2.50;;;;;;;5.24;100.00;97448.69;4975242;28;20369;-59
2022/01/04 08:11:09;;;;;;;5.45;2.50;;;;;;;5.19;100.00;97448.59;4965898;28;20042;-59
2022/01/04 08:13:35;;;;;;;10.30;2.38;;;;;;;5.17;100.00;97450.72;4992879;28;20085;-59
2022/01/04 08:16:00;;;;;;;8.18;2.65;;;;;;;5.13;100.00;97455.72;4976927;28;20116;-60
2022/01/04 08:18:26;;;;;;;7.93;2.92;;;;;;;5.09;100.00;97453.81;4978049;28;20057;-62
2022/01/04 08:20:56;;;;;;;9.02;3.33;;;;;;;5.06;100.00;97459.63;4971266;28;20070;-61
2022/01/04 08:23:22;;;;;;;5.78;2.80;;;;;;;5.06;100.00;97449.81;4974052;28;20426;-59
2022/01/04 08:25:48;;;;;;;8.27;3.10;;;;;;;4.98;100.00;97448.41;4974248;28;20607;-60
2022/01/04 08:28:13;;;;;;;6.43;2.95;;;;;;;5.01;100.00;97451.63;4967807;28;20057;-61
2022/01/04 08:30:40;;;;;;;8.15;2.90;;;;;;;5.01;100.00;97456.94;4972618;28;20820;-62
2022/01/04 08:33:06;;;;;;;5.43;2.42;;;;;;;4.99;100.00;97451.84;4979131;28;20036;-61
2022/01/04 08:35:31;;;;;;;16.05;2.67;;;;;;;5.05;100.00;97447.41;4978550;28;20062;-59
2022/01/04 08:37:57;;;;;;;8.98;2.75;;;;;;;5.03;100.00;97454.84;4977112;28;20263;-59
2022/01/04 08:40:22;;;;;;;10.85;3.28;;;;;;;5.05;100.00;97452.72;4974145;28;20058;-61
2022/01/04 08:42:48;;;;;;;8.73;3.17;;;;;;;5.02;100.00;97459.34;4971269;28;20034;-60
2022/01/04 08:45:13;;;;;;;6.50;3.03;;;;;;;5.01;100.00;97459.59;4967689;28;20039;-60
2022/01/04 08:47:39;;;;;;;8.73;3.78;;;;;;;4.97;100.00;97461.94;4972248;28;20037;-60
2022/01/04 08:50:05;;;;;;;11.88;3.90;;;;;;;4.96;100.00;97450.50;4972072;28;20046;-61
2022/01/04 08:52:31;;;;;;;12.68;4.95;;;;;;;4.98;100.00;97458.22;4972896;28;20081;-60
2022/01/04 08:54:56;;;;;;;11.65;5.13;;;;;;;5.07;100.00;97461.25;4971265;28;20760;-60
2022/01/04 08:57:23;;;;;;;13.80;5.75;;;;;;;5.02;100.00;97450.56;4969733;28;20567;-60
2022/01/04 08:59:48;;;;;;;12.20;5.53;;;;;;;5.02;100.00;97447.91;4973352;28;20029;-60
2022/01/04 09:02:14;;;;;;;13.10;6.15;;;;;;;5.04;100.00;97449.28;4983774;28;20042;-60
2022/01/04 09:04:39;;;;;;;17.30;6.20;;;;;;;5.05;100.00;97447.41;4975033;28;20719;-60
2022/01/04 09:07:05;;;;;;;14.32;5.53;;;;;;;5.05;100.00;97444.75;4970708;28;20393;-60
2022/01/04 09:09:30;;;;;;;11.15;5.03;;;;;;;5.01;100.00;97441.78;4973769;28;20038;-60
2022/01/04 09:11:56;;;;;;;9.57;4.50;;;;;;;5.00;100.00;97439.41;4973179;28;20042;-60
2022/01/04 09:14:42;;;;;;;10.70;4.57;;;;;;;5.08;100.00;97438.94;4968360;28;20043;-60
2022/01/04 09:19:53;;;;;;;7.85;4.13;;;;;;;5.11;100.00;97439.22;4969749;28;20046;-60
2022/01/04 09:22:18;;;;;;;12.98;4.55;;;;;;;5.14;100.00;97443.25;4973046;28;20043;-60
2022/01/04 09:24:44;;;;;;;7.20;3.30;;;;;;;5.11;100.00;97449.84;4971370;28;20057;-60
2022/01/04 09:27:10;;;;;;;6.28;3.40;;;;;;;5.13;100.00;97445.09;4971915;28;20066;-60
2022/01/04 09:29:35;;;;;;;5.60;2.90;;;;;;;5.16;100.00;97449.09;4969323;28;20034;-60
2022/01/04 09:32:02;;;;;;;5.13;3.08;;;;;;;5.16;100.00;97449.09;4980428;28;20069;-60
2022/01/04 09:34:27;;;;;;;5.70;2.90;;;;;;;5.14;100.00;97451.22;4975337;28;20096;-60
2022/01/04 09:36:53;;;;;;;7.05;3.28;;;;;;;5.19;100.00;97461.88;4977230;28;20058;-61
2022/01/04 09:39:23;;;;;;;4.45;2.20;;;;;;;5.10;100.00;97468.72;4982176;28;20030;-60
2022/01/04 09:41:53;;;;;;;5.38;3.10;;;;;;;5.18;100.00;97468.25;4971127;28;20116;-60
2022/01/04 09:44:19;;;;;;;3.67;2.35;;;;;;;5.27;100.00;97477.38;4972052;28;20042;-60
2022/01/04 09:46:44;;;;;;;4.28;2.63;;;;;;;5.31;100.00;97483.00;4971813;28;20128;-61
2022/01/04 09:49:10;;;;;;;3.83;2.50;;;;;;;5.34;100.00;97491.28;4973672;28;20536;-60
2022/01/04 09:51:38;;;;;;;12.82;3.40;;;;;;;5.36;100.00;97499.78;4978447;28;20049;-60
2022/01/04 09:54:04;;;;;;;5.30;3.00;;;;;;;5.35;100.00;97494.72;4969988;28;20138;-60
2022/01/04 09:56:29;;;;;;;5.80;3.13;;;;;;;5.33;100.00;97489.66;4966723;28;20692;-60
2022/01/04 09:58:54;;;;;;;4.28;2.63;;;;;;;5.29;100.00;97490.41;4971340;28;20022;-61
2022/01/04 10:01:37;;;;;;;6.68;2.92;;;;;;;5.26;100.00;97486.41;4976950;28;20712;-60
2022/01/04 10:04:02;;;;;;;6.60;3.08;;;;;;;5.24;100.00;97488.53;4972112;28;20077;-60
2022/01/04 10:06:28;;;;;;;4.78;2.85;;;;;;;5.13;100.00;97481.50;4972158;28;20043;-60
2022/01/04 10:08:59;;;;;;;4.80;2.72;;;;;;;5.16;100.00;97487.09;4979541;28;20034;-60
2022/01/04 10:11:42;;;;;;;3.50;1.98;;;;;;;5.15;100.00;97492.66;4967553;28;20042;-60
2022/01/04 10:14:31;;;;;;;5.75;2.40;;;;;;;5.16;100.00;97495.06;4971368;28;20085;-60
2022/01/04 10:17:04;;;;;;;5.32;2.20;;;;;;;5.16;100.00;97481.78;4977981;28;20853;-60
2022/01/04 10:19:46;;;;;;;4.45;2.50;;;;;;;5.10;100.00;97476.69;4971216;28;20092;-61
2022/01/04 10:22:27;;;;;;;4.20;2.50;;;;;;;5.13;100.00;97494.75;4971526;28;20101;-60
2022/01/04 10:25:02;;;;;;;4.45;2.33;;;;;;;5.22;100.00;97506.56;4967636;28;20429;-61
2022/01/04 10:27:28;;;;;;;7.13;2.70;;;;;;;5.14;100.00;97491.88;4986070;28;20054;-61
2022/01/04 10:30:12;;;;;;;8.27;2.33;;;;;;;5.13;100.00;97492.09;4992189;28;20026;-58
2022/01/04 10:33:05;;;;;;;5.18;2.30;;;;;;;5.16;100.00;97494.25;4975407;28;20090;-61
2022/01/04 10:35:53;;;;;;;3.55;1.90;;;;;;;5.21;100.00;97491.66;4968007;28;20077;-61
2022/01/04 10:38:18;;;;;;;2.25;1.50;;;;;;;5.22;100.00;97498.59;4968061;28;20038;-61
2022/01/04 10:40:45;;;;;;;3.42;1.70;;;;;;;5.25;100.00;97484.81;4976130;28;20042;-61
2022/01/04 10:43:13;;;;;;;3.67;1.90;;;;;;;5.19;100.00;97485.78;4994649;28;20030;-60
2022/01/04 10:45:40;;;;;;;3.88;1.73;;;;;;;5.29;100.00;97480.59;4988217;28;20045;-60
2022/01/04 10:48:10;;;;;;;2.67;1.50;;;;;;;5.18;100.00;97470.91;4990062;28;20080;-60
2022/01/04 10:50:37;;;;;;;2.42;1.70;;;;;;;5.20;100.00;97466.16;4994233;28;20053;-60
2022/01/04 10:53:03;;;;;;;3.63;1.73;;;;;;;5.17;100.00;97470.13;4992116;28;20134;-60
2022/01/04 10:55:33;;;;;;;3.33;1.70;;;;;;;5.16;100.00;97471.16;4988025;28;20054;-61
2022/01/04 10:57:59;;;;;;;4.35;2.00;;;;;;;5.26;100.00;97480.28;4986647;28;20042;-60
2022/01/04 11:00:25;;;;;;;5.40;2.40;;;;;;;5.35;100.00;97476.94;5001062;28;20109;-60
2022/01/04 11:02:51;;;;;;;3.88;2.40;;;;;;;5.30;100.00;97474.22;4991804;28;20464;-59
2022/01/04 11:05:18;;;;;;;6.07;2.65;;;;;;;5.34;100.00;97482.47;4992813;28;20037;-59
2022/01/04 11:08:04;;;;;;;4.63;2.20;;;;;;;5.29;100.00;97485.91;4987527;28;20404;-60
2022/01/04 11:10:31;;;;;;;2.85;1.75;;;;;;;5.27;100.00;97482.69;4990671;28;20124;-60
2022/01/04 11:12:58;;;;;;;4.10;1.65;;;;;;;5.28;100.00;97483.50;5026321;28;20512;-60
2022/01/04 11:15:24;;;;;;;4.95;1.35;;;;;;;5.26;100.00;97491.72;4991587;28;20065;-60
2022/01/04 11:17:49;;;;;;;4.40;1.70;;;;;;;5.26;100.00;97486.41;4998710;28;20088;-60
2022/01/04 11:20:14;;;;;;;2.75;1.33;;;;;;;5.21;100.00;97490.84;4990170;28;20037;-60
2022/01/04 11:22:40;;;;;;;1.40;1.15;;;;;;;5.21;100.00;97482.88;4987480;28;20375;-60
2022/01/04 11:25:06;;;;;;;2.08;1.33;;;;;;;5.14;100.00;97485.72;5002536;28;20030;-60
2022/01/04 11:27:31;;;;;;;1.33;1.10;;;;;;;5.12;100.00;97485.22;4988483;28;20531;-60
2022/01/04 11:29:58;;;;;;;3.88;1.48;;;;;;;5.18;100.00;97494.81;4979056;28;20112;-60
2022/01/04 11:32:24;;;;;;;5.63;1.48;;;;;;;5.15;100.00;97496.13;4982907;28;20044;-60
2022/01/04 11:35:12;;;;;;;3.03;1.45;;;;;;;5.06;100.00;97497.59;5021312;28;20636;-59
2022/01/04 11:37:41;;;;;;;1.27;1.10;;;;;;;5.03;100.00;97492.81;4998715;28;20423;-60
2022/01/04 11:40:26;;;;;;;1.55;1.20;;;;;;;5.02;100.00;97482.41;5016404;28;20317;-60